sensor_id;sensor_type;location;lat;lon;timestamp;pressure;altitude;pressure_sealevel;temperature;humidity
50852;BME280;43953;45.508;-122.806;2023-03-14T00:00:17;100226.72;;;10.63;67.21
50852;BME280;43953;45.508;-122.806;2023-03-14T00:00:48;100220.72;;;10.61;66.79
50852;BME280;43953;45.508;-122.806;2023-03-14T00:01:20;100227.78;;;10.62;67.16
50852;BME280;43953;45.508;-122.806;2023-03-14T00:01:52;100230.47;;;10.62;66.79
50852;BME280;43953;45.508;-122.806;2023-03-14T00:02:24;100228.81;;;10.61;67.12
50852;BME280;43953;45.508;-122.806;2023-03-14T00:02:55;100233.38;;;10.60;66.80
50852;BME280;43953;45.508;-122.806;2023-03-14T00:03:28;100229.25;;;10.58;66.89
50852;BME280;43953;45.508;-122.806;2023-03-14T00:04:00;100227.59;;;10.57;66.82
50852;BME280;43953;45.508;-122.806;2023-03-14T00:04:32;100240.84;;;10.58;67.16
50852;BME280;43953;45.508;-122.806;2023-03-14T00:05:04;100241.66;;;10.59;66.74
50852;BME280;43953;45.508;-122.806;2023-03-14T00:05:37;100233.81;;;10.57;67.17
50852;BME280;43953;45.508;-122.806;2023-03-14T00:06:10;100230.06;;;10.58;66.64
50852;BME280;43953;45.508;-122.806;2023-03-14T00:06:42;100243.53;;;10.58;66.87
50852;BME280;43953;45.508;-122.806;2023-03-14T00:07:14;100232.75;;;10.58;66.88
50852;BME280;43953;45.508;-122.806;2023-03-14T00:07:46;100240.00;;;10.58;66.72
50852;BME280;43953;45.508;-122.806;2023-03-14T00:08:17;100237.56;;;10.56;66.42
50852;BME280;43953;45.508;-122.806;2023-03-14T00:08:50;100244.59;;;10.57;66.26
50852;BME280;43953;45.508;-122.806;2023-03-14T00:09:22;100248.31;;;10.56;66.45
50852;BME280;43953;45.508;-122.806;2023-03-14T00:09:54;100248.31;;;10.56;66.39
50852;BME280;43953;45.508;-122.806;2023-03-14T00:10:26;100249.16;;;10.57;66.37
50852;BME280;43953;45.508;-122.806;2023-03-14T00:10:58;100242.94;;;10.56;66.57
50852;BME280;43953;45.508;-122.806;2023-03-14T00:11:29;100250.16;;;10.56;66.67
50852;BME280;43953;45.508;-122.806;2023-03-14T00:12:02;100246.66;;;10.55;67.02
50852;BME280;43953;45.508;-122.806;2023-03-14T00:12:34;100242.09;;;10.56;66.99
50852;BME280;43953;45.508;-122.806;2023-03-14T00:13:06;100243.75;;;10.57;66.87
50852;BME280;43953;45.508;-122.806;2023-03-14T00:13:38;100243.75;;;10.57;66.65
50852;BME280;43953;45.508;-122.806;2023-03-14T00:14:10;100242.94;;;10.56;66.56
50852;BME280;43953;45.508;-122.806;2023-03-14T00:14:42;100241.06;;;10.57;66.57
50852;BME280;43953;45.508;-122.806;2023-03-14T00:15:14;100235.69;;;10.57;66.52
50852;BME280;43953;45.508;-122.806;2023-03-14T00:15:46;100238.38;;;10.57;67.01
50852;BME280;43953;45.508;-122.806;2023-03-14T00:16:19;100245.41;;;10.58;67.07
50852;BME280;43953;45.508;-122.806;2023-03-14T00:16:50;100250.78;;;10.58;66.84
50852;BME280;43953;45.508;-122.806;2023-03-14T00:17:22;100241.88;;;10.57;66.98
50852;BME280;43953;45.508;-122.806;2023-03-14T00:17:54;100241.66;;;10.59;66.64
50852;BME280;43953;45.508;-122.806;2023-03-14T00:18:25;100246.84;;;10.60;66.46
50852;BME280;43953;45.508;-122.806;2023-03-14T00:19:00;100250.34;;;10.61;66.72
50852;BME280;43953;45.508;-122.806;2023-03-14T00:19:32;100246.63;;;10.62;66.77
50852;BME280;43953;45.508;-122.806;2023-03-14T00:20:06;100246.63;;;10.62;66.78
50852;BME280;43953;45.508;-122.806;2023-03-14T00:20:42;100240.63;;;10.60;66.48
50852;BME280;43953;45.508;-122.806;2023-03-14T00:21:14;100249.09;;;10.63;66.58
50852;BME280;43953;45.508;-122.806;2023-03-14T00:21:46;100245.56;;;10.63;66.43
50852;BME280;43953;45.508;-122.806;2023-03-14T00:22:18;100254.25;;;10.65;66.55
50852;BME280;43953;45.508;-122.806;2023-03-14T00:22:50;100248.88;;;10.65;66.48
50852;BME280;43953;45.508;-122.806;2023-03-14T00:23:21;100241.81;;;10.64;66.24
50852;BME280;43953;45.508;-122.806;2023-03-14T00:23:53;100251.56;;;10.65;66.26
50852;BME280;43953;45.508;-122.806;2023-03-14T00:24:25;100246.19;;;10.65;66.01
50852;BME280;43953;45.508;-122.806;2023-03-14T00:24:57;100248.03;;;10.64;65.90
50852;BME280;43953;45.508;-122.806;2023-03-14T00:25:28;100252.59;;;10.64;65.83
50852;BME280;43953;45.508;-122.806;2023-03-14T00:26:04;100256.94;;;10.65;66.26
50852;BME280;43953;45.508;-122.806;2023-03-14T00:26:36;100248.88;;;10.65;66.46
50852;BME280;43953;45.508;-122.806;2023-03-14T00:27:08;100255.28;;;10.64;66.33
50852;BME280;43953;45.508;-122.806;2023-03-14T00:27:40;100259.66;;;10.65;66.09
50852;BME280;43953;45.508;-122.806;2023-03-14T00:28:12;100254.25;;;10.65;66.50
50852;BME280;43953;45.508;-122.806;2023-03-14T00:28:44;100256.94;;;10.65;66.20
50852;BME280;43953;45.508;-122.806;2023-03-14T00:29:16;100263.16;;;10.65;66.37
50852;BME280;43953;45.508;-122.806;2023-03-14T00:29:48;100257.78;;;10.65;66.19
50852;BME280;43953;45.508;-122.806;2023-03-14T00:30:20;100261.28;;;10.66;66.23
50852;BME280;43953;45.508;-122.806;2023-03-14T00:30:51;100255.91;;;10.66;65.96
50852;BME280;43953;45.508;-122.806;2023-03-14T00:31:23;100256.94;;;10.65;65.94
50852;BME280;43953;45.508;-122.806;2023-03-14T00:31:55;100258.78;;;10.64;66.03
50852;BME280;43953;45.508;-122.806;2023-03-14T00:32:27;100250.72;;;10.64;66.46
50852;BME280;43953;45.508;-122.806;2023-03-14T00:32:58;100251.78;;;10.63;66.62
50852;BME280;43953;45.508;-122.806;2023-03-14T00:33:30;100248.88;;;10.65;66.34
50852;BME280;43953;45.508;-122.806;2023-03-14T00:34:02;100243.50;;;10.65;66.44
50852;BME280;43953;45.508;-122.806;2023-03-14T00:34:34;100245.34;;;10.64;66.50
50852;BME280;43953;45.508;-122.806;2023-03-14T00:35:06;100247.81;;;10.66;66.23
50852;BME280;43953;45.508;-122.806;2023-03-14T00:35:37;100244.88;;;10.67;66.26
50852;BME280;43953;45.508;-122.806;2023-03-14T00:36:12;100251.94;;;10.68;66.41
50852;BME280;43953;45.508;-122.806;2023-03-14T00:36:44;100250.88;;;10.69;66.56
50852;BME280;43953;45.508;-122.806;2023-03-14T00:37:16;100249.00;;;10.70;66.32
50852;BME280;43953;45.508;-122.806;2023-03-14T00:37:48;100253.38;;;10.71;66.04
50852;BME280;43953;45.508;-122.806;2023-03-14T00:38:20;100246.13;;;10.72;66.17
50852;BME280;43953;45.508;-122.806;2023-03-14T00:38:52;100251.25;;;10.73;66.52
50852;BME280;43953;45.508;-122.806;2023-03-14T00:39:24;100256.88;;;10.72;66.01
50852;BME280;43953;45.508;-122.806;2023-03-14T00:39:55;100253.94;;;10.73;66.47
50852;BME280;43953;45.508;-122.806;2023-03-14T00:40:28;100250.25;;;10.74;66.34
50852;BME280;43953;45.508;-122.806;2023-03-14T00:41:04;100258.91;;;10.76;65.79
50852;BME280;43953;45.508;-122.806;2023-03-14T00:41:36;100257.25;;;10.75;66.15
50852;BME280;43953;45.508;-122.806;2023-03-14T00:42:09;100254.38;;;10.77;65.72
50852;BME280;43953;45.508;-122.806;2023-03-14T00:42:40;100266.78;;;10.78;65.84
50852;BME280;43953;45.508;-122.806;2023-03-14T00:43:12;100256.00;;;10.78;65.84
50852;BME280;43953;45.508;-122.806;2023-03-14T00:43:44;100261.38;;;10.78;65.90
50852;BME280;43953;45.508;-122.806;2023-03-14T00:44:16;100267.59;;;10.78;65.70
50852;BME280;43953;45.508;-122.806;2023-03-14T00:44:47;100267.59;;;10.78;65.33
50852;BME280;43953;45.508;-122.806;2023-03-14T00:45:19;100271.09;;;10.79;65.66
50852;BME280;43953;45.508;-122.806;2023-03-14T00:45:51;100266.78;;;10.78;65.33
50852;BME280;43953;45.508;-122.806;2023-03-14T00:46:23;100264.28;;;10.76;65.00
50852;BME280;43953;45.508;-122.806;2023-03-14T00:46:55;100266.78;;;10.78;65.00
50852;BME280;43953;45.508;-122.806;2023-03-14T00:47:28;100272.16;;;10.78;65.46
50852;BME280;43953;45.508;-122.806;2023-03-14T00:47:59;100266.97;;;10.76;65.10
50852;BME280;43953;45.508;-122.806;2023-03-14T00:48:31;100272.16;;;10.78;65.06
50852;BME280;43953;45.508;-122.806;2023-03-14T00:49:03;100264.06;;;10.78;65.31
50852;BME280;43953;45.508;-122.806;2023-03-14T00:49:35;100268.66;;;10.77;65.46
50852;BME280;43953;45.508;-122.806;2023-03-14T00:50:07;100272.97;;;10.78;65.31
50852;BME280;43953;45.508;-122.806;2023-03-14T00:50:39;100272.97;;;10.78;64.90
50852;BME280;43953;45.508;-122.806;2023-03-14T00:51:12;100268.66;;;10.77;65.33
50852;BME280;43953;45.508;-122.806;2023-03-14T00:51:46;100269.22;;;10.79;65.10
50852;BME280;43953;45.508;-122.806;2023-03-14T00:52:17;100272.53;;;10.81;65.44
50852;BME280;43953;45.508;-122.806;2023-03-14T00:52:49;100276.28;;;10.80;65.26
50852;BME280;43953;45.508;-122.806;2023-03-14T00:53:21;100270.91;;;10.80;65.50
50852;BME280;43953;45.508;-122.806;2023-03-14T00:53:52;100276.03;;;10.82;65.33
50852;BME280;43953;45.508;-122.806;2023-03-14T00:54:24;100275.22;;;10.81;65.64
50852;BME280;43953;45.508;-122.806;2023-03-14T00:54:56;100274.16;;;10.82;65.17
50852;BME280;43953;45.508;-122.806;2023-03-14T00:55:28;100275.84;;;10.83;65.23
50852;BME280;43953;45.508;-122.806;2023-03-14T00:56:03;100275.03;;;10.83;65.70
50852;BME280;43953;45.508;-122.806;2023-03-14T00:56:35;100280.41;;;10.83;65.41
50852;BME280;43953;45.508;-122.806;2023-03-14T00:57:06;100282.25;;;10.82;65.50
50852;BME280;43953;45.508;-122.806;2023-03-14T00:57:38;100277.47;;;10.84;65.38
50852;BME280;43953;45.508;-122.806;2023-03-14T00:58:14;100281.22;;;10.83;65.14
50852;BME280;43953;45.508;-122.806;2023-03-14T00:58:46;100273.97;;;10.84;64.95
50852;BME280;43953;45.508;-122.806;2023-03-14T00:59:18;100279.13;;;10.85;64.81
50852;BME280;43953;45.508;-122.806;2023-03-14T00:59:51;100275.59;;;10.85;64.63
50852;BME280;43953;45.508;-122.806;2023-03-14T01:00:23;100276.41;;;10.85;64.83
50852;BME280;43953;45.508;-122.806;2023-03-14T01:00:54;100280.78;;;10.86;65.01
50852;BME280;43953;45.508;-122.806;2023-03-14T01:01:26;100280.78;;;10.86;64.88
50852;BME280;43953;45.508;-122.806;2023-03-14T01:01:58;100282.41;;;10.87;64.77
50852;BME280;43953;45.508;-122.806;2023-03-14T01:02:30;100276.00;;;10.88;65.10
50852;BME280;43953;45.508;-122.806;2023-03-14T01:03:02;100282.22;;;10.89;64.66
50852;BME280;43953;45.508;-122.806;2023-03-14T01:03:34;100278.69;;;10.88;64.77
50852;BME280;43953;45.508;-122.806;2023-03-14T01:04:05;100278.47;;;10.90;65.13
50852;BME280;43953;45.508;-122.806;2023-03-14T01:04:37;100278.25;;;10.91;64.73
50852;BME280;43953;45.508;-122.806;2023-03-14T01:05:10;100276.59;;;10.90;64.48
50852;BME280;43953;45.508;-122.806;2023-03-14T01:05:42;100280.09;;;10.91;64.55
50852;BME280;43953;45.508;-122.806;2023-03-14T01:06:16;100278.25;;;10.91;64.27
50852;BME280;43953;45.508;-122.806;2023-03-14T01:06:48;100275.56;;;10.91;64.06
50852;BME280;43953;45.508;-122.806;2023-03-14T01:07:20;100272.03;;;10.91;64.06
50852;BME280;43953;45.508;-122.806;2023-03-14T01:07:51;100282.78;;;10.91;64.05
50852;BME280;43953;45.508;-122.806;2023-03-14T01:08:23;100282.78;;;10.91;64.10
50852;BME280;43953;45.508;-122.806;2023-03-14T01:08:55;100283.84;;;10.90;64.19
50852;BME280;43953;45.508;-122.806;2023-03-14T01:09:27;100283.03;;;10.89;64.08
50852;BME280;43953;45.508;-122.806;2023-03-14T01:09:59;100282.22;;;10.89;64.36
50852;BME280;43953;45.508;-122.806;2023-03-14T01:10:30;100283.22;;;10.88;64.24
50852;BME280;43953;45.508;-122.806;2023-03-14T01:11:23;100278.53;;;10.83;63.91
50852;BME280;43953;45.508;-122.806;2023-03-14T01:11:55;100287.63;;;10.82;64.45
50852;BME280;43953;45.508;-122.806;2023-03-14T01:12:27;100284.13;;;10.82;64.27
50852;BME280;43953;45.508;-122.806;2023-03-14T01:12:59;100284.94;;;10.82;64.60
50852;BME280;43953;45.508;-122.806;2023-03-14T01:13:30;100284.13;;;10.82;64.77
50852;BME280;43953;45.508;-122.806;2023-03-14T01:14:03;100283.31;;;10.81;64.62
50852;BME280;43953;45.508;-122.806;2023-03-14T01:14:34;100276.88;;;10.82;64.70
50852;BME280;43953;45.508;-122.806;2023-03-14T01:15:07;100284.94;;;10.82;64.50
50852;BME280;43953;45.508;-122.806;2023-03-14T01:15:39;100290.31;;;10.82;64.73
50852;BME280;43953;45.508;-122.806;2023-03-14T01:16:12;100278.75;;;10.82;64.39
50852;BME280;43953;45.508;-122.806;2023-03-14T01:16:44;100284.13;;;10.82;64.19
50852;BME280;43953;45.508;-122.806;2023-03-14T01:17:15;100284.94;;;10.82;64.13
50852;BME280;43953;45.508;-122.806;2023-03-14T01:17:47;100286.00;;;10.81;63.96
50852;BME280;43953;45.508;-122.806;2023-03-14T01:18:19;100283.31;;;10.81;64.34
50852;BME280;43953;45.508;-122.806;2023-03-14T01:18:51;100287.88;;;10.81;63.75
50852;BME280;43953;45.508;-122.806;2023-03-14T01:19:22;100292.44;;;10.80;64.16
50852;BME280;43953;45.508;-122.806;2023-03-14T01:19:54;100287.88;;;10.81;63.86
50852;BME280;43953;45.508;-122.806;2023-03-14T01:20:26;100286.22;;;10.80;63.87
50852;BME280;43953;45.508;-122.806;2023-03-14T01:20:57;100290.78;;;10.79;63.83
50852;BME280;43953;45.508;-122.806;2023-03-14T01:21:34;100290.78;;;10.79;63.76
50852;BME280;43953;45.508;-122.806;2023-03-14T01:22:06;100290.78;;;10.79;63.88
50852;BME280;43953;45.508;-122.806;2023-03-14T01:22:38;100284.56;;;10.79;64.01
50852;BME280;43953;45.508;-122.806;2023-03-14T01:23:10;100289.13;;;10.78;64.15
50852;BME280;43953;45.508;-122.806;2023-03-14T01:23:43;100292.66;;;10.79;63.83
50852;BME280;43953;45.508;-122.806;2023-03-14T01:24:15;100289.13;;;10.78;64.12
50852;BME280;43953;45.508;-122.806;2023-03-14T01:24:47;100290.19;;;10.77;63.86
50852;BME280;43953;45.508;-122.806;2023-03-14T01:25:18;100290.78;;;10.79;63.81
50852;BME280;43953;45.508;-122.806;2023-03-14T01:25:50;100292.88;;;10.77;63.60
50852;BME280;43953;45.508;-122.806;2023-03-14T01:26:25;100292.06;;;10.77;63.86
50852;BME280;43953;45.508;-122.806;2023-03-14T01:26:57;100291.22;;;10.76;63.52
50852;BME280;43953;45.508;-122.806;2023-03-14T01:27:28;100286.88;;;10.75;63.71
50852;BME280;43953;45.508;-122.806;2023-03-14T01:28:00;100285.81;;;10.76;63.45
50852;BME280;43953;45.508;-122.806;2023-03-14T01:28:32;100290.63;;;10.74;63.22
50852;BME280;43953;45.508;-122.806;2023-03-14T01:29:03;100287.09;;;10.74;63.70
50852;BME280;43953;45.508;-122.806;2023-03-14T01:29:35;100291.66;;;10.73;63.58
50852;BME280;43953;45.508;-122.806;2023-03-14T01:30:08;100296.47;;;10.71;63.55
50852;BME280;43953;45.508;-122.806;2023-03-14T01:30:40;100285.69;;;10.71;63.89
50852;BME280;43953;45.508;-122.806;2023-03-14T01:31:12;100292.09;;;10.70;63.58
50852;BME280;43953;45.508;-122.806;2023-03-14T01:31:44;100287.75;;;10.69;63.48
50852;BME280;43953;45.508;-122.806;2023-03-14T01:32:16;100293.97;;;10.69;63.66
50852;BME280;43953;45.508;-122.806;2023-03-14T01:32:48;100294.22;;;10.68;63.57
50852;BME280;43953;45.508;-122.806;2023-03-14T01:33:19;100296.03;;;10.67;63.86
50852;BME280;43953;45.508;-122.806;2023-03-14T01:33:51;100297.91;;;10.67;63.72
50852;BME280;43953;45.508;-122.806;2023-03-14T01:34:23;100294.41;;;10.66;63.82
50852;BME280;43953;45.508;-122.806;2023-03-14T01:34:55;100295.22;;;10.67;63.73
50852;BME280;43953;45.508;-122.806;2023-03-14T01:35:26;100293.59;;;10.66;63.74
50852;BME280;43953;45.508;-122.806;2023-03-14T01:35:59;100293.78;;;10.64;64.10
50852;BME280;43953;45.508;-122.806;2023-03-14T01:36:33;100291.09;;;10.64;64.03
50852;BME280;43953;45.508;-122.806;2023-03-14T01:37:05;100297.53;;;10.63;63.56
50852;BME280;43953;45.508;-122.806;2023-03-14T01:37:38;100291.34;;;10.63;63.78
50852;BME280;43953;45.508;-122.806;2023-03-14T01:38:10;100290.72;;;10.61;64.06
50852;BME280;43953;45.508;-122.806;2023-03-14T01:38:41;100300.22;;;10.63;63.95
50852;BME280;43953;45.508;-122.806;2023-03-14T01:39:13;100302.09;;;10.63;63.84
50852;BME280;43953;45.508;-122.806;2023-03-14T01:39:46;100297.78;;;10.62;63.63
50852;BME280;43953;45.508;-122.806;2023-03-14T01:40:18;100296.94;;;10.61;63.95
50852;BME280;43953;45.508;-122.806;2023-03-14T01:40:50;100301.50;;;10.61;63.67
50852;BME280;43953;45.508;-122.806;2023-03-14T01:41:24;100294.47;;;10.60;63.92
50852;BME280;43953;45.508;-122.806;2023-03-14T01:41:56;100304.63;;;10.58;64.18
50852;BME280;43953;45.508;-122.806;2023-03-14T01:42:27;100304.63;;;10.58;63.55
50852;BME280;43953;45.508;-122.806;2023-03-14T01:43:12;100303.00;;;10.57;63.85
50852;BME280;43953;45.508;-122.806;2023-03-14T01:43:45;100304.25;;;10.54;63.60
50852;BME280;43953;45.508;-122.806;2023-03-14T01:44:17;100303.44;;;10.54;63.84
50852;BME280;43953;45.508;-122.806;2023-03-14T01:45:00;100301.16;;;10.51;63.50
50852;BME280;43953;45.508;-122.806;2023-03-14T01:46:40;100309.88;;;10.46;63.81
50852;BME280;43953;45.508;-122.806;2023-03-14T01:47:12;100314.66;;;10.44;63.75
50852;BME280;43953;45.508;-122.806;2023-03-14T01:47:43;100312.19;;;10.42;63.85
50852;BME280;43953;45.508;-122.806;2023-03-14T01:48:15;100309.72;;;10.41;63.94
50852;BME280;43953;45.508;-122.806;2023-03-14T01:49:37;100311.44;;;10.35;64.20
50852;BME280;43953;45.508;-122.806;2023-03-14T01:50:10;100316.19;;;10.33;63.93
50852;BME280;43953;45.508;-122.806;2023-03-14T01:50:43;100311.84;;;10.32;64.00
50852;BME280;43953;45.508;-122.806;2023-03-14T01:52:09;100319.31;;;10.30;64.30
50852;BME280;43953;45.508;-122.806;2023-03-14T01:52:35;100317.06;;;10.27;64.34
50852;BME280;43953;45.508;-122.806;2023-03-14T01:53:08;100313.72;;;10.25;64.58
50852;BME280;43953;45.508;-122.806;2023-03-14T01:53:40;100318.28;;;10.24;64.68
50852;BME280;43953;45.508;-122.806;2023-03-14T01:54:36;100318.28;;;10.24;64.55
50852;BME280;43953;45.508;-122.806;2023-03-14T01:55:19;100324.91;;;10.22;64.26
50852;BME280;43953;45.508;-122.806;2023-03-14T01:55:53;100326.41;;;10.18;64.73
50852;BME280;43953;45.508;-122.806;2023-03-14T01:56:27;100314.59;;;10.19;64.78
50852;BME280;43953;45.508;-122.806;2023-03-14T01:57:56;100325.78;;;10.16;64.87
50852;BME280;43953;45.508;-122.806;2023-03-14T01:58:31;100325.16;;;10.14;64.63
50852;BME280;43953;45.508;-122.806;2023-03-14T01:59:07;100324.34;;;10.13;64.44
50852;BME280;43953;45.508;-122.806;2023-03-14T01:59:41;100317.09;;;10.14;64.76
50852;BME280;43953;45.508;-122.806;2023-03-14T02:00:19;100326.22;;;10.13;64.44
50852;BME280;43953;45.508;-122.806;2023-03-14T02:00:52;100328.91;;;10.13;64.51
50852;BME280;43953;45.508;-122.806;2023-03-14T02:01:25;100323.53;;;10.13;64.61
50852;BME280;43953;45.508;-122.806;2023-03-14T02:01:57;100328.28;;;10.11;64.82
50852;BME280;43953;45.508;-122.806;2023-03-14T02:02:30;100326.41;;;10.11;64.82
50852;BME280;43953;45.508;-122.806;2023-03-14T02:03:07;100332.03;;;10.10;64.45
50852;BME280;43953;45.508;-122.806;2023-03-14T02:03:53;100325.81;;;10.09;64.54
50852;BME280;43953;45.508;-122.806;2023-03-14T02:04:29;100331.41;;;10.08;64.56
50852;BME280;43953;45.508;-122.806;2023-03-14T02:05:05;100327.91;;;10.07;64.79
50852;BME280;43953;45.508;-122.806;2023-03-14T02:05:39;100326.25;;;10.06;64.63
50852;BME280;43953;45.508;-122.806;2023-03-14T02:06:14;100322.13;;;10.03;65.09
50852;BME280;43953;45.508;-122.806;2023-03-14T02:07:50;100332.28;;;10.01;65.00
50852;BME280;43953;45.508;-122.806;2023-03-14T02:08:23;100328.75;;;10.01;65.22
50852;BME280;43953;45.508;-122.806;2023-03-14T02:08:55;100337.66;;;10.01;64.77
50852;BME280;43953;45.508;-122.806;2023-03-14T02:09:27;100333.31;;;10.00;65.07
50852;BME280;43953;45.508;-122.806;2023-03-14T02:10:00;100332.28;;;10.01;64.94
50852;BME280;43953;45.508;-122.806;2023-03-14T02:10:38;100330.63;;;10.00;64.76
50852;BME280;43953;45.508;-122.806;2023-03-14T02:11:10;100335.19;;;10.00;64.99
50852;BME280;43953;45.508;-122.806;2023-03-14T02:11:43;100328.13;;;9.99;64.75
50852;BME280;43953;45.508;-122.806;2023-03-14T02:12:16;100332.50;;;10.00;64.99
50852;BME280;43953;45.508;-122.806;2023-03-14T02:12:49;100339.72;;;9.99;65.08
50852;BME280;43953;45.508;-122.806;2023-03-14T02:13:22;100339.72;;;9.99;65.08
50852;BME280;43953;45.508;-122.806;2023-03-14T02:13:54;100337.25;;;9.98;65.14
50852;BME280;43953;45.508;-122.806;2023-03-14T02:14:34;100335.81;;;9.95;65.02
50852;BME280;43953;45.508;-122.806;2023-03-14T02:15:06;100338.31;;;9.97;65.19
50852;BME280;43953;45.508;-122.806;2023-03-14T02:15:39;100336.44;;;9.97;64.81
50852;BME280;43953;45.508;-122.806;2023-03-14T02:16:11;100333.94;;;9.96;65.10
50852;BME280;43953;45.508;-122.806;2023-03-14T02:16:43;100342.84;;;9.96;64.69
50852;BME280;43953;45.508;-122.806;2023-03-14T02:17:16;100334.75;;;9.96;64.71
50852;BME280;43953;45.508;-122.806;2023-03-14T02:17:49;100342.00;;;9.96;64.83
50852;BME280;43953;45.508;-122.806;2023-03-14T02:18:20;100337.69;;;9.95;64.77
50852;BME280;43953;45.508;-122.806;2023-03-14T02:18:52;100336.88;;;9.94;65.08
50852;BME280;43953;45.508;-122.806;2023-03-14T02:19:50;100337.28;;;9.91;64.87
50852;BME280;43953;45.508;-122.806;2023-03-14T02:20:30;100339.38;;;9.89;65.09
50852;BME280;43953;45.508;-122.806;2023-03-14T02:21:27;100342.25;;;9.88;64.92
50852;BME280;43953;45.508;-122.806;2023-03-14T02:22:14;100334.63;;;9.85;64.93
50852;BME280;43953;45.508;-122.806;2023-03-14T02:22:47;100336.47;;;9.84;65.44
50852;BME280;43953;45.508;-122.806;2023-03-14T02:23:48;100341.84;;;9.84;65.04
50852;BME280;43953;45.508;-122.806;2023-03-14T02:24:35;100342.28;;;9.81;65.19
50852;BME280;43953;45.508;-122.806;2023-03-14T02:26:10;100338.16;;;9.78;65.21
50852;BME280;43953;45.508;-122.806;2023-03-14T02:27:05;100339.22;;;9.77;65.58
50852;BME280;43953;45.508;-122.806;2023-03-14T02:27:37;100332.38;;;9.75;65.14
50852;BME280;43953;45.508;-122.806;2023-03-14T02:28:10;100340.44;;;9.75;65.42
50852;BME280;43953;45.508;-122.806;2023-03-14T02:28:41;100334.03;;;9.76;65.40
50852;BME280;43953;45.508;-122.806;2023-03-14T02:29:13;100337.75;;;9.75;65.59
50852;BME280;43953;45.508;-122.806;2023-03-14T02:30:15;100341.69;;;9.72;65.71
50852;BME280;43953;45.508;-122.806;2023-03-14T02:30:47;100334.88;;;9.70;65.83
50852;BME280;43953;45.508;-122.806;2023-03-14T02:31:21;100347.31;;;9.71;65.37
50852;BME280;43953;45.508;-122.806;2023-03-14T02:31:53;100345.44;;;9.71;65.66
50852;BME280;43953;45.508;-122.806;2023-03-14T02:32:27;100345.19;;;9.73;65.74
50852;BME280;43953;45.508;-122.806;2023-03-14T02:33:11;100342.75;;;9.71;65.88
50852;BME280;43953;45.508;-122.806;2023-03-14T02:33:44;100352.69;;;9.71;65.52
50852;BME280;43953;45.508;-122.806;2023-03-14T02:34:15;100352.69;;;9.71;65.43
50852;BME280;43953;45.508;-122.806;2023-03-14T02:34:52;100351.84;;;9.70;65.55
50852;BME280;43953;45.508;-122.806;2023-03-14T02:35:28;100353.09;;;9.68;65.25
50852;BME280;43953;45.508;-122.806;2023-03-14T02:36:03;100354.53;;;9.70;65.49
50852;BME280;43953;45.508;-122.806;2023-03-14T02:36:37;100352.06;;;9.69;65.37
50852;BME280;43953;45.508;-122.806;2023-03-14T02:37:10;100361.75;;;9.70;65.40
50852;BME280;43953;45.508;-122.806;2023-03-14T02:37:48;100360.13;;;9.69;65.58
50852;BME280;43953;45.508;-122.806;2023-03-14T02:39:21;100362.19;;;9.67;65.61
50852;BME280;43953;45.508;-122.806;2023-03-14T02:39:55;100367.56;;;9.67;65.78
50852;BME280;43953;45.508;-122.806;2023-03-14T02:40:27;100364.06;;;9.66;65.64
50852;BME280;43953;45.508;-122.806;2023-03-14T02:40:59;100366.75;;;9.66;65.62
50852;BME280;43953;45.508;-122.806;2023-03-14T02:41:31;100372.94;;;9.67;65.54
50852;BME280;43953;45.508;-122.806;2023-03-14T02:42:03;100372.13;;;9.66;65.28
50852;BME280;43953;45.508;-122.806;2023-03-14T02:42:35;100372.94;;;9.67;65.56
50852;BME280;43953;45.508;-122.806;2023-03-14T02:43:06;100379.34;;;9.66;65.28
50852;BME280;43953;45.508;-122.806;2023-03-14T02:43:38;100377.72;;;9.65;65.43
50852;BME280;43953;45.508;-122.806;2023-03-14T02:44:10;100377.72;;;9.65;65.73
50852;BME280;43953;45.508;-122.806;2023-03-14T02:45:45;100378.56;;;9.59;65.76
50852;BME280;43953;45.508;-122.806;2023-03-14T02:46:18;100384.13;;;9.57;65.42
50852;BME280;43953;45.508;-122.806;2023-03-14T02:46:51;100382.28;;;9.57;65.36
50852;BME280;43953;45.508;-122.806;2023-03-14T02:47:27;100384.97;;;9.57;65.46
50852;BME280;43953;45.508;-122.806;2023-03-14T02:48:04;100391.16;;;9.58;65.81
50852;BME280;43953;45.508;-122.806;2023-03-14T02:48:45;100389.50;;;9.57;65.75
50852;BME280;43953;45.508;-122.806;2023-03-14T02:49:18;100394.06;;;9.56;65.58
50852;BME280;43953;45.508;-122.806;2023-03-14T02:49:52;100387.06;;;9.55;65.74
50852;BME280;43953;45.508;-122.806;2023-03-14T02:50:27;100388.69;;;9.56;65.40
50852;BME280;43953;45.508;-122.806;2023-03-14T02:51:01;100387.06;;;9.55;65.27
50852;BME280;43953;45.508;-122.806;2023-03-14T02:51:33;100396.75;;;9.56;65.55
50852;BME280;43953;45.508;-122.806;2023-03-14T02:52:06;100397.81;;;9.55;65.17
50852;BME280;43953;45.508;-122.806;2023-03-14T02:52:38;100397.81;;;9.55;65.63
50852;BME280;43953;45.508;-122.806;2023-03-14T02:53:12;100396.94;;;9.55;65.58
50852;BME280;43953;45.508;-122.806;2023-03-14T02:53:44;100395.13;;;9.55;65.47
50852;BME280;43953;45.508;-122.806;2023-03-14T02:54:16;100392.44;;;9.55;65.48
50852;BME280;43953;45.508;-122.806;2023-03-14T02:54:49;100392.63;;;9.54;65.44
50852;BME280;43953;45.508;-122.806;2023-03-14T02:55:22;100399.03;;;9.53;65.40
50852;BME280;43953;45.508;-122.806;2023-03-14T02:55:54;100404.41;;;9.53;65.29
50852;BME280;43953;45.508;-122.806;2023-03-14T02:56:26;100401.94;;;9.51;65.55